Time;durP1;ratioP1;P1;durP2;ratioP2;P2;SDS_P1;SDS_P2;PMS_P1;PMS_P2;Temp;Humidity;BMP_temperature;BMP_pressure;BME280_temperature;BME280_humidity;BME280_pressure;Samples;Min_cycle;Max_cycle;Signal;HPM_P1;HPM_P2
2022/04/25 00:02:01;;;;;;;35.00;22.90;;;;;;;36.35;45.39;100742.31;5071135;28;20428;-71
2022/04/25 00:04:27;;;;;;;46.30;25.63;;;;;;;36.10;45.83;100746.25;5072467;28;20410;-71
2022/04/25 00:06:54;;;;;;;42.00;27.63;;;;;;;35.89;46.22;100731.47;5070947;28;20434;-71
2022/04/25 00:09:20;;;;;;;39.63;26.00;;;;;;;35.72;46.83;100738.19;5071050;28;20425;-71
2022/04/25 00:11:46;;;;;;;40.20;26.60;;;;;;;35.22;47.75;100726.22;5070715;28;20547;-70
2022/04/25 00:14:14;;;;;;;42.27;26.90;;;;;;;35.04;48.04;100724.28;5054344;28;20940;-71
2022/04/25 00:16:41;;;;;;;47.97;28.07;;;;;;;35.17;48.24;100720.88;5072511;28;20913;-72
2022/04/25 00:19:08;;;;;;;49.77;29.13;;;;;;;35.46;47.16;100718.88;5070749;28;20422;-70
2022/04/25 00:21:34;;;;;;;39.13;28.67;;;;;;;35.65;47.10;100726.16;5070908;28;20430;-72
2022/04/25 00:24:01;;;;;;;45.93;25.33;;;;;;;35.84;46.92;100726.13;5070869;28;20956;-70
2022/04/25 00:26:27;;;;;;;37.23;24.30;;;;;;;35.98;46.35;100730.53;5070766;28;20779;-72
2022/04/25 00:28:53;;;;;;;51.43;27.70;;;;;;;36.08;45.56;100731.44;5070732;28;20432;-70
2022/04/25 00:31:19;;;;;;;55.50;28.97;;;;;;;36.08;45.40;100731.44;5070689;28;20422;-71
2022/04/25 00:33:45;;;;;;;33.40;23.67;;;;;;;36.10;45.90;100723.88;5070685;28;20410;-70
2022/04/25 00:36:11;;;;;;;40.13;23.27;;;;;;;35.83;46.43;100727.25;5070772;28;20432;-72
2022/04/25 00:38:38;;;;;;;36.50;23.80;;;;;;;35.85;46.38;100711.53;5070530;28;20426;-71
2022/04/25 00:41:06;;;;;;;34.97;22.33;;;;;;;36.01;45.49;100712.94;5070562;28;20450;-72
2022/04/25 00:43:33;;;;;;;43.00;26.40;;;;;;;36.14;45.14;100705.94;5072129;28;20438;-73
2022/04/25 00:45:59;;;;;;;50.27;23.93;;;;;;;36.14;45.49;100708.66;5071972;28;20417;-71
2022/04/25 00:48:26;;;;;;;34.93;24.10;;;;;;;36.14;45.40;100709.44;5070253;28;20414;-70
2022/04/25 00:50:52;;;;;;;41.20;25.03;;;;;;;36.11;45.10;100704.66;5070513;28;20410;-71
2022/04/25 00:53:18;;;;;;;48.30;22.10;;;;;;;36.08;45.55;100699.03;5070568;28;20421;-71
2022/04/25 00:55:44;;;;;;;36.53;23.80;;;;;;;36.14;45.45;100701.34;5053657;28;20432;-71
2022/04/25 00:58:13;;;;;;;35.60;25.17;;;;;;;36.04;45.40;100696.16;5070458;28;20452;-72
2022/04/25 01:00:40;;;;;;;29.47;22.03;;;;;;;36.12;45.28;100694.66;5070390;28;20464;-71
2022/04/25 01:03:06;;;;;;;33.73;24.43;;;;;;;35.97;45.79;100687.59;5070385;28;20421;-72
2022/04/25 01:05:33;;;;;;;37.17;22.37;;;;;;;36.12;45.71;100692.75;5070427;28;20956;-71
2022/04/25 01:08:02;;;;;;;32.10;22.93;;;;;;;36.16;44.91;100684.88;5070331;28;20422;-71
2022/04/25 01:10:29;;;;;;;40.03;21.13;;;;;;;36.09;45.11;100684.44;5071529;28;20913;-70
2022/04/25 01:12:55;;;;;;;46.60;23.53;;;;;;;36.21;44.70;100682.06;5086874;28;20466;-70
2022/04/25 01:15:23;;;;;;;49.40;27.43;;;;;;;36.21;45.25;100679.34;5070308;28;20426;-70
2022/04/25 01:17:49;;;;;;;38.57;23.30;;;;;;;36.01;45.02;100678.63;5071582;28;20485;-70
2022/04/25 01:20:15;;;;;;;41.90;24.77;;;;;;;36.07;45.60;100679.34;5070158;28;20839;-70
2022/04/25 01:22:49;;;;;;;45.80;22.87;;;;;;;36.19;44.92;100684.25;5070242;28;20418;-70
2022/04/25 01:28:04;;;;;;;32.73;20.97;;;;;;;36.14;45.50;100676.25;5070723;28;20955;-72
2022/04/25 01:30:34;;;;;;;44.37;25.33;;;;;;;36.13;44.75;100669.25;5070050;28;20826;-72
2022/04/25 01:33:00;;;;;;;34.27;25.70;;;;;;;36.15;45.08;100658.94;5053911;28;20574;-72
2022/04/25 01:35:26;;;;;;;39.30;24.80;;;;;;;36.23;44.92;100658.28;5070018;28;20584;-73
2022/04/25 01:37:53;;;;;;;33.57;23.60;;;;;;;36.18;44.84;100656.47;5069958;28;20453;-72
2022/04/25 01:40:19;;;;;;;42.00;24.50;;;;;;;36.21;44.98;100661.25;5071245;28;20993;-71
2022/04/25 01:42:45;;;;;;;37.47;22.83;;;;;;;36.08;45.59;100648.53;5069925;28;20523;-71
2022/04/25 01:45:11;;;;;;;33.20;22.60;;;;;;;35.85;45.85;100655.69;5069691;28;20453;-71
2022/04/25 01:47:37;;;;;;;48.50;22.37;;;;;;;35.84;46.05;100647.88;5069901;28;20508;-71
2022/04/25 01:50:04;;;;;;;31.27;21.50;;;;;;;35.82;45.72;100660.88;5070026;28;20817;-71
2022/04/25 01:52:33;;;;;;;32.90;22.40;;;;;;;35.87;45.54;100655.38;5071142;28;20414;-71
2022/04/25 01:55:01;;;;;;;40.83;22.57;;;;;;;35.99;45.12;100656.53;5071270;28;20405;-70
2022/04/25 01:57:28;;;;;;;43.13;22.27;;;;;;;36.00;45.33;100647.34;5053402;28;20440;-71
2022/04/25 01:59:55;;;;;;;31.83;22.37;;;;;;;36.02;45.57;100647.81;5038824;28;20457;-71
2022/04/25 02:02:23;;;;;;;38.53;22.10;;;;;;;36.25;45.12;100651.47;5073486;28;20449;-70
2022/04/25 02:04:50;;;;;;;33.53;24.17;;;;;;;36.41;44.91;100645.81;5073340;28;20422;-70
2022/04/25 02:07:16;;;;;;;38.93;22.10;;;;;;;36.50;44.18;100649.38;5073459;28;20430;-71
2022/04/25 02:09:43;;;;;;;33.50;21.43;;;;;;;36.50;44.56;100646.69;5090066;28;20475;-71
2022/04/25 02:12:09;;;;;;;31.50;22.57;;;;;;;36.49;44.72;100645.91;5073019;28;20469;-71
2022/04/25 02:14:35;;;;;;;42.33;21.80;;;;;;;36.45;44.40;100647.59;5040162;28;20468;-73
2022/04/25 02:17:02;;;;;;;39.13;22.30;;;;;;;36.45;44.75;100650.28;5073145;28;20410;-72
2022/04/25 02:19:30;;;;;;;26.53;21.37;;;;;;;36.43;45.07;100652.50;5072973;28;20868;-71
2022/04/25 02:21:57;;;;;;;37.90;23.83;;;;;;;36.43;44.90;100641.69;5074494;28;20398;-71
2022/04/25 02:24:23;;;;;;;34.50;25.47;;;;;;;36.43;44.54;100646.28;5072839;28;20442;-72
2022/04/25 02:26:50;;;;;;;40.77;23.23;;;;;;;36.41;44.51;100648.50;5073074;28;20413;-72
2022/04/25 02:29:18;;;;;;;34.70;22.90;;;;;;;36.43;45.00;100652.50;5072938;28;20417;-73
2022/04/25 02:31:44;;;;;;;31.67;22.00;;;;;;;36.41;44.25;100660.13;5074287;28;20398;-73
2022/04/25 02:34:11;;;;;;;36.30;22.30;;;;;;;36.46;44.88;100660.03;5072867;28;20850;-71
2022/04/25 02:36:37;;;;;;;32.13;25.10;;;;;;;36.46;44.76;100656.50;5072659;28;20453;-71
2022/04/25 02:39:04;;;;;;;29.80;23.47;;;;;;;36.50;44.51;100652.88;5074180;28;20924;-71
2022/04/25 02:41:30;;;;;;;36.17;22.87;;;;;;;36.53;44.86;100656.91;5072470;28;20550;-72
2022/04/25 02:43:56;;;;;;;34.43;24.40;;;;;;;36.50;44.72;100644.78;5072666;28;20988;-72
2022/04/25 02:46:22;;;;;;;41.20;24.23;;;;;;;36.51;44.73;100645.59;5072624;28;20426;-73
2022/04/25 02:48:49;;;;;;;36.60;23.93;;;;;;;36.52;44.74;100639.91;5072442;28;20456;-73
2022/04/25 02:51:16;;;;;;;39.87;22.60;;;;;;;36.51;44.92;100635.56;5072599;28;20448;-70
2022/04/25 02:53:43;;;;;;;32.63;26.50;;;;;;;36.51;44.58;100637.47;5072466;28;20418;-71
2022/04/25 02:56:10;;;;;;;39.27;23.43;;;;;;;36.50;45.17;100642.09;5072731;28;20788;-73
2022/04/25 02:58:41;;;;;;;29.57;22.07;;;;;;;36.50;44.93;100633.19;5072443;28;20414;-70
2022/04/25 03:01:08;;;;;;;30.43;20.40;;;;;;;36.50;44.84;100633.97;5072281;28;20515;-70
2022/04/25 03:03:36;;;;;;;33.63;22.40;;;;;;;36.48;44.50;100638.09;5073705;28;20402;-70
2022/04/25 03:06:05;;;;;;;28.90;19.43;;;;;;;36.46;45.14;100640.28;5055611;28;20586;-71
2022/04/25 03:08:33;;;;;;;34.43;21.53;;;;;;;36.45;44.84;100628.69;5073560;28;20406;-72
2022/04/25 03:10:59;;;;;;;39.20;21.97;;;;;;;36.50;44.56;100625.88;5072833;28;20477;-73
2022/04/25 03:13:25;;;;;;;38.27;24.30;;;;;;;36.52;44.78;100631.78;5072143;28;20513;-72
2022/04/25 03:15:52;;;;;;;49.97;24.43;;;;;;;36.54;44.68;100626.09;5073411;28;20401;-70
2022/04/25 03:18:19;;;;;;;45.03;26.63;;;;;;;36.54;44.20;100621.47;5071973;28;20421;-71
2022/04/25 03:20:48;;;;;;;31.90;22.23;;;;;;;36.56;44.45;100624.66;5071891;28;20457;-72
2022/04/25 03:23:21;;;;;;;29.20;17.70;;;;;;;36.58;44.27;100625.16;5071856;28;20519;-72
2022/04/25 03:25:48;;;;;;;39.10;19.40;;;;;;;36.56;44.41;100627.38;5071901;28;20414;-71
2022/04/25 03:28:15;;;;;;;32.33;20.80;;;;;;;36.61;44.20;100628.38;5073055;28;20394;-70
2022/04/25 03:30:42;;;;;;;35.30;19.50;;;;;;;36.55;44.35;100636.59;5073078;28;20909;-70
2022/04/25 03:33:11;;;;;;;37.10;19.50;;;;;;;36.55;44.58;100636.59;5072954;28;20445;-73
2022/04/25 03:35:38;;;;;;;32.67;20.90;;;;;;;36.53;44.25;100638.00;5071581;28;20425;-72
2022/04/25 03:38:06;;;;;;;39.10;23.33;;;;;;;36.50;44.65;100639.38;5071495;28;20445;-72
2022/04/25 03:40:33;;;;;;;34.97;24.90;;;;;;;36.40;44.59;100642.31;5071409;28;20906;-70
2022/04/25 03:43:00;;;;;;;35.53;23.27;;;;;;;36.34;45.00;100646.19;5071508;28;20428;-72
2022/04/25 03:45:26;;;;;;;29.00;23.60;;;;;;;36.41;44.65;100649.31;5071238;28;20446;-73
2022/04/25 03:47:53;;;;;;;43.87;27.20;;;;;;;36.47;44.43;100639.19;5071401;28;20479;-70
2022/04/25 03:50:19;;;;;;;34.20;25.00;;;;;;;36.48;44.65;100644.28;5071274;28;20445;-70
2022/04/25 03:52:46;;;;;;;35.40;23.17;;;;;;;36.46;45.08;100649.22;5071320;28;20418;-72
2022/04/25 03:58:00;;;;;;;33.23;22.63;;;;;;;36.44;44.85;100647.91;5072606;28;21036;-72
2022/04/25 04:00:27;;;;;;;29.33;22.27;;;;;;;36.41;44.71;100657.41;5071172;28;20462;-71
2022/04/25 04:02:53;;;;;;;47.73;24.93;;;;;;;36.44;44.91;100658.69;5071117;28;20437;-71
2022/04/25 04:05:20;;;;;;;35.10;26.37;;;;;;;36.45;45.28;100657.59;5070964;28;20444;-71
2022/04/25 04:07:49;;;;;;;32.50;27.30;;;;;;;36.44;44.99;100659.50;5072477;28;20890;-71
2022/04/25 04:10:16;;;;;;;36.20;30.53;;;;;;;36.48;44.58;100665.13;5087846;28;20431;-73
2022/04/25 04:12:46;;;;;;;47.37;38.60;;;;;;;36.46;44.45;100670.81;5087566;28;20489;-72
2022/04/25 04:15:13;;;;;;;45.70;33.80;;;;;;;36.41;44.96;100668.22;5070889;28;20429;-71
2022/04/25 04:17:40;;;;;;;48.30;34.20;;;;;;;36.39;45.34;100672.28;5072295;28;20408;-71
2022/04/25 04:20:08;;;;;;;56.47;42.07;;;;;;;36.38;45.38;100668.78;5070588;28;20477;-72
2022/04/25 04:22:36;;;;;;;64.77;47.67;;;;;;;36.40;44.59;100677.44;5070352;28;20918;-71
2022/04/25 04:25:22;;;;;;;39.30;33.63;;;;;;;36.26;45.38;100676.56;5072126;28;20401;-71
2022/04/25 04:27:48;;;;;;;40.63;31.87;;;;;;;36.17;45.46;100697.28;5070843;28;20453;-70
2022/04/25 04:30:15;;;;;;;54.20;48.70;;;;;;;36.14;45.70;100687.06;5070798;28;20918;-72
2022/04/25 04:32:42;;;;;;;58.00;44.17;;;;;;;36.19;45.74;100692.38;5070492;28;20445;-73
2022/04/25 04:35:10;;;;;;;47.20;39.37;;;;;;;36.18;45.75;100693.47;5070769;28;20453;-70
2022/04/25 04:37:38;;;;;;;42.97;32.23;;;;;;;36.14;45.20;100704.06;5070621;28;20425;-70
2022/04/25 04:42:51;;;;;;;45.37;30.17;;;;;;;36.16;45.26;100695.69;5071875;28;20455;-73
2022/04/25 04:45:17;;;;;;;39.27;27.67;;;;;;;36.18;45.51;100696.97;5070555;28;20895;-71
2022/04/25 04:47:43;;;;;;;40.40;32.50;;;;;;;36.19;45.63;100703.97;5070338;28;20451;-70
2022/04/25 04:50:14;;;;;;;54.57;39.20;;;;;;;36.22;45.00;100711.50;5070537;28;20418;-70
2022/04/25 04:52:45;;;;;;;49.73;41.70;;;;;;;36.27;45.19;100710.56;5070515;28;20421;-72
2022/04/25 04:55:12;;;;;;;66.63;43.77;;;;;;;36.26;45.33;100708.97;5070337;28;20473;-72
2022/04/25 04:57:39;;;;;;;65.73;49.30;;;;;;;36.24;45.12;100714.69;5070480;28;20425;-72
2022/04/25 05:00:08;;;;;;;56.50;46.40;;;;;;;36.24;45.44;100708.47;5070157;28;20464;-71
2022/04/25 05:02:35;;;;;;;49.77;40.87;;;;;;;36.26;45.68;100708.97;5070258;28;20445;-71
2022/04/25 05:05:01;;;;;;;51.23;39.23;;;;;;;36.27;45.31;100715.97;5070331;28;20495;-72
2022/04/25 05:07:27;;;;;;;50.47;39.57;;;;;;;36.30;45.49;100718.88;5070331;28;20426;-72
2022/04/25 05:09:53;;;;;;;44.13;37.50;;;;;;;36.23;44.81;100721.19;5070212;28;20452;-71
2022/04/25 05:12:20;;;;;;;58.20;34.70;;;;;;;36.23;45.03;100723.88;5071400;28;20996;-71
2022/04/25 05:14:47;;;;;;;41.33;32.47;;;;;;;36.20;45.24;100729.06;5070292;28;20874;-71
2022/04/25 05:17:13;;;;;;;51.47;32.00;;;;;;;36.20;45.25;100734.47;5070179;28;20397;-72
2022/04/25 05:19:39;;;;;;;46.43;31.20;;;;;;;36.21;45.47;100727.97;5070159;28;20449;-71
2022/04/25 05:22:05;;;;;;;37.30;24.73;;;;;;;36.25;45.40;100731.69;5070302;28;20426;-71
2022/04/25 05:24:31;;;;;;;32.03;16.80;;;;;;;36.38;45.23;100735.50;5070107;28;20418;-73
2022/04/25 05:26:58;;;;;;;28.17;16.20;;;;;;;36.50;44.89;100739.34;5070449;28;21028;-72
2022/04/25 05:29:24;;;;;;;50.30;16.50;;;;;;;36.55;44.35;100736.56;5069944;28;20783;-71
2022/04/25 05:31:50;;;;;;;31.63;14.50;;;;;;;36.54;44.54;100740.38;5070019;28;20444;-70
2022/04/25 05:34:18;;;;;;;28.10;13.30;;;;;;;36.55;44.28;100741.97;5071321;28;20516;-72
2022/04/25 05:36:44;;;;;;;21.17;13.00;;;;;;;36.56;44.66;100748.97;5073907;28;20421;-73
2022/04/25 05:39:11;;;;;;;40.57;15.47;;;;;;;36.67;44.23;100746.06;5073906;28;20422;-72
2022/04/25 05:41:38;;;;;;;35.13;16.23;;;;;;;36.66;44.26;100747.19;5073716;28;20453;-73
2022/04/25 05:44:05;;;;;;;23.20;13.57;;;;;;;36.68;44.23;100753.06;5073985;28;20429;-72
2022/04/25 05:46:33;;;;;;;26.97;14.63;;;;;;;36.79;44.08;100762.59;5075159;28;20486;-72
2022/04/25 05:51:59;;;;;;;23.60;14.10;;;;;;;36.91;42.92;100765.63;5074974;28;20989;-70
2022/04/25 05:54:26;;;;;;;24.20;12.90;;;;;;;36.85;43.43;100764.09;5075000;28;20408;-72
2022/04/25 05:56:52;;;;;;;29.33;17.23;;;;;;;36.92;43.23;100769.94;5073482;28;20931;-72
2022/04/25 05:59:19;;;;;;;21.90;15.30;;;;;;;36.94;43.57;100767.72;5073501;28;20514;-70
2022/04/25 06:01:45;;;;;;;32.93;14.23;;;;;;;36.91;43.46;100768.34;5073460;28;20453;-70
2022/04/25 06:04:12;;;;;;;30.50;14.07;;;;;;;36.89;43.48;100764.31;5074731;28;20456;-72
2022/04/25 06:06:39;;;;;;;30.03;14.13;;;;;;;36.83;43.98;100767.09;5073434;28;20505;-72
2022/04/25 06:09:05;;;;;;;40.33;13.50;;;;;;;36.77;44.02;100765.59;5073322;28;20941;-72
2022/04/25 06:11:32;;;;;;;30.97;14.00;;;;;;;36.77;43.92;100771.00;5074474;28;20988;-73
2022/04/25 06:14:00;;;;;;;32.90;13.00;;;;;;;36.78;44.25;100777.22;5096421;22;20488;-72
2022/04/25 06:16:26;;;;;;;29.00;13.93;;;;;;;36.85;44.07;100777.59;5073184;28;20414;-73
2022/04/25 06:18:52;;;;;;;25.83;13.00;;;;;;;36.83;44.32;100769.81;5074562;28;20410;-72
2022/04/25 06:21:19;;;;;;;23.77;13.00;;;;;;;36.75;44.72;100778.59;5074558;28;20470;-72
2022/04/25 06:23:45;;;;;;;28.37;14.80;;;;;;;36.78;44.55;100777.22;5073270;28;20417;-73
2022/04/25 06:26:11;;;;;;;27.53;12.70;;;;;;;36.80;44.07;100785.81;5073105;28;20515;-72
2022/04/25 06:28:37;;;;;;;29.93;14.90;;;;;;;36.88;44.41;100777.03;5070826;28;20532;-71
2022/04/25 06:31:03;;;;;;;26.23;14.17;;;;;;;36.97;43.74;100780.66;5072879;28;20418;-70
2022/04/25 06:33:29;;;;;;;29.87;15.43;;;;;;;37.05;43.77;100790.75;5074055;28;20820;-70
2022/04/25 06:35:56;;;;;;;29.03;17.00;;;;;;;37.04;43.74;100783.75;5056104;28;20451;-72
2022/04/25 06:38:22;;;;;;;23.27;14.80;;;;;;;37.10;43.66;100787.13;5070718;28;20977;-71
2022/04/25 06:40:48;;;;;;;39.57;16.90;;;;;;;37.11;44.03;100789.53;5063070;28;20455;-72
2022/04/25 06:43:14;;;;;;;30.93;16.13;;;;;;;37.08;44.48;100792.84;5036738;28;20821;-71
2022/04/25 06:45:41;;;;;;;36.27;17.53;;;;;;;37.10;43.91;100796.06;5055446;28;20424;-71
2022/04/25 06:48:08;;;;;;;31.33;17.60;;;;;;;37.04;44.60;100802.66;5080511;28;20429;-72
2022/04/25 06:50:34;;;;;;;22.47;15.63;;;;;;;37.10;44.62;100808.78;5075530;28;20479;-72
2022/04/25 06:53:01;;;;;;;32.77;17.67;;;;;;;37.18;43.65;100809.97;5082019;28;20952;-71
2022/04/25 06:55:28;;;;;;;25.17;16.53;;;;;;;37.07;44.23;100812.06;5086401;28;20439;-70
2022/04/25 06:57:55;;;;;;;26.20;15.27;;;;;;;37.10;44.04;100811.47;5075531;28;20952;-68
2022/04/25 07:00:22;;;;;;;23.43;16.13;;;;;;;37.15;44.01;100814.09;5081640;28;20452;-70
2022/04/25 07:02:51;;;;;;;29.90;15.50;;;;;;;37.09;43.90;100810.69;5082861;28;20456;-69
2022/04/25 07:05:17;;;;;;;30.57;15.00;;;;;;;37.12;44.02;100820.88;5082636;28;20457;-69
2022/04/25 07:07:44;;;;;;;28.03;18.57;;;;;;;37.23;43.66;100826.09;5082091;28;20799;-69
2022/04/25 07:10:10;;;;;;;40.67;15.70;;;;;;;37.27;43.41;100822.50;5079250;28;20492;-69
2022/04/25 07:12:37;;;;;;;27.80;15.67;;;;;;;37.23;43.84;100832.31;5073479;28;20449;-70
2022/04/25 07:15:03;;;;;;;26.83;18.97;;;;;;;37.25;43.88;100832.78;5071905;28;20478;-69
2022/04/25 07:17:30;;;;;;;38.70;17.97;;;;;;;37.22;44.03;100846.94;5071947;28;20467;-69
2022/04/25 07:19:56;;;;;;;39.07;18.90;;;;;;;37.26;43.68;100844.41;5071716;28;20501;-70
2022/04/25 07:30:37;;;;;;;32.53;16.30;;;;;;;37.32;44.27;100865.69;5073154;28;20799;-70
2022/04/25 07:33:03;;;;;;;35.90;16.67;;;;;;;37.35;44.15;100861.59;5071864;28;20425;-71
2022/04/25 07:35:29;;;;;;;26.00;14.97;;;;;;;37.40;44.32;100863.38;5071596;28;20453;-71
2022/04/25 07:37:56;;;;;;;48.70;15.80;;;;;;;37.51;43.90;100872.91;5071681;28;20425;-71
2022/04/25 07:40:23;;;;;;;31.13;14.03;;;;;;;37.60;43.63;100874.56;5072034;28;20477;-69
2022/04/25 07:42:49;;;;;;;24.37;13.60;;;;;;;37.57;43.95;100869.78;5075125;28;20848;-70
2022/04/25 07:45:15;;;;;;;26.57;11.93;;;;;;;37.56;43.76;100881.69;5078874;28;20498;-72
2022/04/25 07:47:45;;;;;;;15.27;7.93;;;;;;;37.47;43.09;100880.81;5071255;28;20453;-70
2022/04/25 07:50:12;;;;;;;14.00;6.70;;;;;;;37.46;42.63;100890.03;5074704;28;20432;-71
2022/04/25 07:52:38;;;;;;;12.70;6.57;;;;;;;37.47;42.07;100886.22;5073136;28;20896;-69
2022/04/25 07:55:07;;;;;;;16.70;7.70;;;;;;;37.47;42.49;100890.84;5090105;28;20427;-76
2022/04/25 07:57:35;;;;;;;13.40;6.70;;;;;;;37.56;42.25;100894.41;5075349;28;20428;-67
2022/04/25 08:00:04;;;;;;;26.73;7.33;;;;;;;37.63;42.78;100897.53;5070809;28;20981;-70
2022/04/25 08:02:30;;;;;;;18.50;8.10;;;;;;;37.70;42.34;100889.00;5070022;28;20414;-69
2022/04/25 08:04:58;;;;;;;17.70;7.50;;;;;;;37.64;42.32;100899.13;5059874;28;20988;-74
2022/04/25 08:07:24;;;;;;;15.90;7.47;;;;;;;37.58;42.75;100905.75;5075219;28;20836;-71
2022/04/25 08:09:51;;;;;;;17.83;9.63;;;;;;;37.74;42.90;100909.72;5072425;28;20477;-73
2022/04/25 08:18:01;;;;;;;13.77;6.83;;;;;;;37.93;42.46;100934.00;5072186;28;20587;-70
2022/04/25 08:20:36;;;;;;;21.60;7.67;;;;;;;37.95;42.68;100926.38;5070809;28;21056;-69
2022/04/25 08:23:11;;;;;;;12.87;6.20;;;;;;;37.99;42.34;100937.38;5072045;28;20461;-70
2022/04/25 08:25:39;;;;;;;10.20;4.53;;;;;;;37.97;42.27;100935.00;5038891;28;20427;-71
2022/04/25 08:28:06;;;;;;;12.40;5.57;;;;;;;37.97;42.33;100931.50;5054429;28;20406;-70
2022/04/25 08:30:33;;;;;;;24.07;6.93;;;;;;;37.98;42.16;100938.50;5071910;28;20506;-71
2022/04/25 08:33:00;;;;;;;21.40;7.17;;;;;;;37.94;42.31;100940.22;5070798;28;20809;-71
2022/04/25 08:35:28;;;;;;;13.37;5.90;;;;;;;37.86;42.06;100950.66;5054226;28;20421;-70
2022/04/25 08:37:54;;;;;;;15.93;6.37;;;;;;;37.89;42.26;100941.94;5070711;28;20468;-74
2022/04/25 08:40:22;;;;;;;16.10;6.70;;;;;;;37.89;42.60;100954.69;5070405;28;20465;-70
2022/04/25 08:42:48;;;;;;;21.63;7.77;;;;;;;37.95;42.57;100947.25;5071766;28;20477;-71
2022/04/25 08:45:15;;;;;;;12.53;5.00;;;;;;;37.91;41.96;100955.16;5070531;28;20433;-71
2022/04/25 08:47:57;;;;;;;17.17;7.33;;;;;;;37.98;42.40;100960.16;5070412;28;20956;-71
2022/04/25 08:50:25;;;;;;;14.80;5.50;;;;;;;38.05;42.12;100955.94;5070596;28;20463;-70
2022/04/25 08:52:52;;;;;;;15.50;6.50;;;;;;;38.03;42.72;100960.06;5070318;28;21006;-70
2022/04/25 08:55:19;;;;;;;17.93;5.90;;;;;;;38.05;42.20;100952.41;5071858;28;20889;-68
2022/04/25 08:57:48;;;;;;;16.63;7.03;;;;;;;38.01;42.45;100965.00;5070412;28;20445;-68
2022/04/25 09:00:16;;;;;;;14.67;6.90;;;;;;;38.02;41.86;100959.25;5070256;28;20550;-69
2022/04/25 09:02:44;;;;;;;11.33;5.83;;;;;;;37.93;42.64;100961.06;5070263;28;20426;-70
2022/04/25 09:05:12;;;;;;;18.43;6.43;;;;;;;37.99;42.17;100956.34;5070223;28;20491;-70
2022/04/25 09:07:41;;;;;;;19.47;7.63;;;;;;;38.06;42.26;100959.44;5070641;28;20422;-70
2022/04/25 09:10:10;;;;;;;16.27;6.87;;;;;;;37.96;43.11;100960.47;5074428;28;20445;-71
2022/04/25 09:12:37;;;;;;;16.33;6.67;;;;;;;38.09;42.12;100954.22;5074513;28;20925;-71
2022/04/25 09:15:08;;;;;;;20.03;7.67;;;;;;;38.06;42.14;100964.84;5074058;28;20560;-69
2022/04/25 09:17:39;;;;;;;14.50;5.13;;;;;;;38.14;41.80;100964.16;5075667;28;20447;-71
2022/04/25 09:20:09;;;;;;;15.30;6.00;;;;;;;38.14;42.58;100964.94;5074164;28;20457;-69
2022/04/25 09:22:39;;;;;;;14.77;7.40;;;;;;;38.20;42.34;100968.34;5074216;28;20425;-71
2022/04/25 09:25:08;;;;;;;18.13;7.93;;;;;;;38.34;41.84;100966.41;5082186;28;20859;-70
2022/04/25 09:27:35;;;;;;;14.90;7.10;;;;;;;38.40;41.88;100967.91;5084722;28;20525;-77
2022/04/25 09:30:16;;;;;;;18.23;6.77;;;;;;;38.36;41.26;100968.81;5080140;28;20425;-69
2022/04/25 09:32:43;;;;;;;11.50;5.07;;;;;;;38.36;41.84;100974.25;5085306;28;20523;-70
2022/04/25 09:35:28;;;;;;;17.90;7.10;;;;;;;38.14;42.33;100969.56;5077453;28;20874;-69
2022/04/25 09:37:56;;;;;;;17.90;6.93;;;;;;;38.15;42.18;100966.53;5082654;28;20508;-68
2022/04/25 09:40:30;;;;;;;20.30;6.60;;;;;;;38.13;41.87;100974.19;5077846;28;20510;-68
2022/04/25 09:43:08;;;;;;;14.20;6.43;;;;;;;38.14;42.07;100973.06;5077957;28;20415;-70
2022/04/25 09:45:45;;;;;;;17.30;6.23;;;;;;;38.17;42.01;100979.78;5078422;28;20441;-69
2022/04/25 09:48:16;;;;;;;12.00;6.63;;;;;;;38.22;41.76;100974.25;5078667;28;20435;-69
2022/04/25 09:50:46;;;;;;;29.77;7.67;;;;;;;38.24;41.88;100972.03;5065295;28;20415;-70
2022/04/25 09:53:12;;;;;;;12.60;5.83;;;;;;;38.26;41.97;100977.16;5087305;28;20417;-69
2022/04/25 09:55:39;;;;;;;14.33;6.83;;;;;;;38.26;42.62;100977.16;5075112;28;20511;-70
2022/04/25 09:58:23;;;;;;;16.80;5.33;;;;;;;38.29;42.61;100971.16;5074265;28;20401;-69
2022/04/25 10:00:53;;;;;;;12.77;5.90;;;;;;;38.38;41.91;100972.84;5074549;28;21012;-69
2022/04/25 10:03:34;;;;;;;14.10;4.97;;;;;;;38.34;41.82;100966.41;5077745;28;20394;-70
2022/04/25 10:06:04;;;;;;;11.37;5.13;;;;;;;38.46;41.63;100971.28;5082219;28;20448;-70
2022/04/25 10:08:35;;;;;;;17.27;4.70;;;;;;;38.46;41.35;100974.00;5065199;28;20927;-70
2022/04/25 10:11:07;;;;;;;14.73;7.63;;;;;;;38.39;41.75;100969.00;5081720;28;20432;-69
2022/04/25 10:13:34;;;;;;;17.60;5.70;;;;;;;38.48;41.64;100970.97;5080413;28;20918;-69
2022/04/25 10:16:02;;;;;;;11.80;6.20;;;;;;;38.51;41.77;100964.97;5056123;28;20406;-69
2022/04/25 10:18:32;;;;;;;21.17;5.57;;;;;;;38.55;41.85;100963.22;5089847;28;20401;-69
2022/04/25 10:21:00;;;;;;;14.63;6.33;;;;;;;38.51;41.57;100968.47;5072054;28;20515;-69
2022/04/25 10:23:27;;;;;;;12.67;4.50;;;;;;;38.57;41.07;100967.25;5089629;28;20418;-69
2022/04/25 10:25:57;;;;;;;13.13;6.23;;;;;;;38.51;41.42;100965.75;5093020;28;20501;-69
2022/04/25 10:28:37;;;;;;;11.80;5.17;;;;;;;38.54;41.38;100965.13;5061222;28;20432;-70
2022/04/25 10:31:10;;;;;;;14.07;5.50;;;;;;;38.59;41.53;100958.78;5087733;28;20416;-70
2022/04/25 10:33:50;;;;;;;15.97;5.40;;;;;;;38.57;41.74;100961.03;5087124;28;20456;-69
2022/04/25 10:36:38;;;;;;;9.90;5.53;;;;;;;38.60;41.35;100963.09;5092033;28;20419;-71
2022/04/25 10:39:17;;;;;;;18.63;6.00;;;;;;;38.61;41.25;100957.41;5086226;28;20891;-69
2022/04/25 10:44:43;;;;;;;16.50;5.53;;;;;;;38.63;41.49;100954.38;5083281;28;20474;-73
2022/04/25 10:47:13;;;;;;;18.80;5.23;;;;;;;38.66;41.44;100945.59;5077547;28;20417;-81
2022/04/25 10:49:42;;;;;;;17.63;7.67;;;;;;;38.69;41.61;100951.22;5082187;28;20465;-81
2022/04/25 10:55:19;;;;;;;15.60;6.30;;;;;;;38.76;41.48;100947.31;5073456;28;20386;-88
2022/04/25 10:58:04;;;;;;;13.43;6.97;;;;;;;38.77;41.54;100943.47;5082573;28;20416;-75
2022/04/25 11:00:37;;;;;;;19.80;5.90;;;;;;;38.81;41.62;100949.88;5077804;28;20894;-77
2022/04/25 11:03:04;;;;;;;10.97;5.53;;;;;;;38.90;41.34;100937.16;5080281;28;20456;-75
2022/04/25 11:05:36;;;;;;;15.93;8.00;;;;;;;38.79;42.29;100947.47;5080764;28;20842;-77
2022/04/25 11:08:23;;;;;;;21.13;9.03;;;;;;;38.73;42.34;100934.34;5086298;28;20425;-76
2022/04/25 11:11:13;;;;;;;13.70;6.80;;;;;;;38.82;41.90;100935.22;5092407;28;20444;-78
2022/04/25 11:13:51;;;;;;;10.73;5.47;;;;;;;38.89;41.88;100935.56;5091966;28;20420;-81
2022/04/25 11:16:22;;;;;;;19.37;5.93;;;;;;;38.75;41.60;100932.94;5091391;28;20409;-82
2022/04/25 11:19:09;;;;;;;14.47;6.73;;;;;;;38.84;42.24;100920.22;5090758;28;20975;-86
2022/04/25 11:21:40;;;;;;;10.20;4.83;;;;;;;38.93;41.61;100914.84;5080054;28;20814;-80
2022/04/25 11:24:30;;;;;;;12.77;5.27;;;;;;;39.04;41.39;100926.22;5087310;28;20936;-74
2022/04/25 11:27:00;;;;;;;12.40;4.60;;;;;;;39.06;41.35;100913.16;5092152;28;20478;-73
2022/04/25 11:29:27;;;;;;;13.87;4.63;;;;;;;39.14;41.04;100915.09;5075484;28;20419;-74
2022/04/25 11:32:27;;;;;;;14.43;5.30;;;;;;;39.14;41.20;100902.34;5077317;28;20520;-77
2022/04/25 11:34:59;;;;;;;11.10;5.50;;;;;;;39.14;41.24;100905.03;5072721;28;20437;-78
2022/04/25 11:37:28;;;;;;;8.97;4.67;;;;;;;39.12;41.50;100898.34;5083735;28;20401;-77
2022/04/25 11:40:12;;;;;;;17.60;6.73;;;;;;;39.16;41.49;100896.63;5077144;28;20456;-76
2022/04/25 11:42:38;;;;;;;11.60;5.30;;;;;;;39.19;41.56;100899.50;5089506;28;20424;-77
2022/04/25 11:45:06;;;;;;;11.73;4.10;;;;;;;39.26;40.99;100892.81;5087089;28;21034;-75
2022/04/25 11:47:32;;;;;;;13.17;4.53;;;;;;;39.23;41.58;100891.56;5076985;28;20463;-77
2022/04/25 11:50:03;;;;;;;18.00;4.70;;;;;;;39.23;41.37;100881.50;5083477;28;21039;-79